Temperatura - Umidità - Pioggia orarie dal 22-03-2020 al 30-03-2020

Intensità - Direzione vento orarie dal 22-03-2020 al 30-03-2020

Dati orari da stazione meteo dal 22-03-2020 al 30-03-2020

Nome Stazione Data Ora Temperatura [°C] Umidità [%] Pioggia [mm] Intensità vento[km/h] Direzione vento [°]
Savigliano 22-03-2020 01:00 8.4 68.4 0 0.4 311
Savigliano 22-03-2020 02:00 8.9 69 0 1.4 294
Savigliano 22-03-2020 03:00 9.4 65.8 0 1.4 308
Savigliano 22-03-2020 04:00 9.8 68.7 0 1.4 311
Savigliano 22-03-2020 05:00 9.9 73 0 0.4 309
Savigliano 22-03-2020 06:00 9.9 77.7 0 1.1 297
Savigliano 22-03-2020 07:00 9.7 80.3 0 0.4 311
Savigliano 22-03-2020 08:00 9.5 82 0 1.4 312
Savigliano 22-03-2020 09:00 9.3 82.9 0 5 264
Savigliano 22-03-2020 10:00 9.5 82.7 0 7.9 148
Savigliano 22-03-2020 11:00 9.6 78.6 0 6.5 112
Savigliano 22-03-2020 12:00 10.6 77.4 0 7.9 278
Savigliano 22-03-2020 13:00 10.6 79 0 7.2 266
Savigliano 22-03-2020 14:00 11.9 76.8 0 5.4 295
Savigliano 22-03-2020 15:00 10.1 80 0 4.3 260
Savigliano 22-03-2020 16:00 9.4 85.3 0 3.2 283
Savigliano 22-03-2020 17:00 10.1 82 0 1.4 301
Savigliano 22-03-2020 18:00 9.8 78.8 0 1.1 285
Savigliano 22-03-2020 19:00 9.5 80.7 0 0.4 289
Savigliano 22-03-2020 20:00 9.1 83.1 0 0 284
Savigliano 22-03-2020 21:00 9.6 82.8 0 0 283
Savigliano 22-03-2020 22:00 8.1 85.8 0 0 281
Savigliano 22-03-2020 23:00 6.9 83.8 0 0.4 281
Savigliano 23-03-2020 00:00 7.1 85.1 0 0 281
Savigliano 23-03-2020 01:00 6.9 85.1 0 0.4 222
Savigliano 23-03-2020 02:00 7 87.1 0 1.1 102
Savigliano 23-03-2020 03:00 7.1 84.1 0 8.3 254
Savigliano 23-03-2020 04:00 7.2 78.3 0 6.5 246
Savigliano 23-03-2020 05:00 5.4 83.2 0 4.3 285
Savigliano 23-03-2020 06:00 6 76.4 0 4.7 267
Savigliano 23-03-2020 07:00 4.4 71.8 0 8.3 187
Savigliano 23-03-2020 08:00 4.7 67.3 0 8.6 224
Savigliano 23-03-2020 09:00 4.3 65.4 0 9.4 136
Savigliano 23-03-2020 10:00 4.4 61.8 0 10.1 264
Savigliano 23-03-2020 11:00 4.7 60 0 8.3 263
Savigliano 23-03-2020 12:00 4.6 59.1 0 6.8 265
Savigliano 23-03-2020 13:00 4.4 57.3 0 7.6 194
Savigliano 23-03-2020 14:00 4.6 53.1 0 5 259
Savigliano 23-03-2020 15:00 4.8 50.8 0 3.2 285
Savigliano 23-03-2020 16:00 5.1 51.4 0 3.6 301
Savigliano 23-03-2020 17:00 4.8 51.6 0 1.4 294
Savigliano 23-03-2020 18:00 4.5 51 0 2.5 288
Savigliano 23-03-2020 19:00 4.4 58.8 0 2.9 269
Savigliano 23-03-2020 20:00 4.1 58.8 0 2.5 262
Savigliano 23-03-2020 21:00 2.8 67.2 0 1.4 237
Savigliano 23-03-2020 22:00 2.9 70.8 0 0.4 297
Savigliano 23-03-2020 23:00 2.4 71.8 0 0 311
Savigliano 24-03-2020 00:00 1.9 77.6 0 0.4 301
Savigliano 24-03-2020 01:00 2.1 75.1 0 0.4 259
Savigliano 24-03-2020 02:00 2.1 77.5 0 0.4 255
Savigliano 24-03-2020 03:00 1.9 78 0 0.4 250
Savigliano 24-03-2020 04:00 1.5 82.9 0 0.4 239
Savigliano 24-03-2020 05:00 1.5 82.8 0 0 237
Savigliano 24-03-2020 06:00 1.9 79.9 0 0 237
Savigliano 24-03-2020 07:00 1.9 78.2 0 1.4 248
Savigliano 24-03-2020 08:00 2.3 77.5 0 1.1 298
Savigliano 24-03-2020 09:00 2.6 78.3 0 1.1 328
Savigliano 24-03-2020 10:00 5 71.4 0 1.4 309
Savigliano 24-03-2020 11:00 6.7 57.8 0 3.2 290
Savigliano 24-03-2020 12:00 7.4 49.4 0 3.2 248
Savigliano 24-03-2020 13:00 8.8 44 0 3.6 261
Savigliano 24-03-2020 14:00 9.2 43 0 3.2 268
Savigliano 24-03-2020 15:00 9.7 39.1 0 3.6 260
Savigliano 24-03-2020 16:00 9.6 35.1 0 3.2 232
Savigliano 24-03-2020 17:00 9.4 31.4 0 2.2 159
Savigliano 24-03-2020 18:00 9.2 28.9 0 1.1 273
Savigliano 24-03-2020 19:00 7.1 36 0 0.7 292
Savigliano 24-03-2020 20:00 6.3 38 0 0.7 238
Savigliano 24-03-2020 21:00 4.3 50.4 0 3.6 207
Savigliano 24-03-2020 22:00 1.7 64.5 0 1.8 168
Savigliano 24-03-2020 23:00 -0.5 71.5 0 1.4 162
Savigliano 25-03-2020 00:00 -1 74.5 0 0 163
Savigliano 25-03-2020 01:00 -0.3 75.9 0 1.1 153
Savigliano 25-03-2020 02:00 -0.6 74.1 0 1.4 247
Savigliano 25-03-2020 03:00 -0.8 74.2 0 2.5 282
Savigliano 25-03-2020 04:00 -0.3 77.7 0 1.4 295
Savigliano 25-03-2020 05:00 -0.8 70.8 0 3.2 291
Savigliano 25-03-2020 06:00 -1 71.3 0 2.5 289
Savigliano 25-03-2020 07:00 -0.5 70.9 0 2.5 287
Savigliano 25-03-2020 08:00 2.1 65.4 0 1.1 320
Savigliano 25-03-2020 09:00 2 65.9 0 0.7 331
Savigliano 25-03-2020 10:00 2.1 63 0 1.4 305
Savigliano 25-03-2020 11:00 3.7 58.9 0 2.9 195
Savigliano 25-03-2020 12:00 4 58.6 0 2.2 230
Savigliano 25-03-2020 13:00 4.5 58.6 0 4 281
Savigliano 25-03-2020 14:00 4.4 59.2 0 5.4 279
Savigliano 25-03-2020 15:00 4.8 58.2 0 4 276
Savigliano 25-03-2020 16:00 6.1 52 0 6.1 284
Savigliano 25-03-2020 17:00 7.1 51.8 0 5.4 238
Savigliano 25-03-2020 18:00 4.7 51.5 0 6.5 303
Savigliano 25-03-2020 19:00 4.5 58.7 0 4 211
Savigliano 25-03-2020 20:00 2.4 64 0 2.5 335
Savigliano 25-03-2020 21:00 2 65.1 0 5.4 325
Savigliano 25-03-2020 22:00 1.9 65.5 0 4.3 301
Savigliano 25-03-2020 23:00 1.7 67.4 0 2.9 314
Savigliano 26-03-2020 00:00 1.5 69.9 0 4 278
Savigliano 26-03-2020 01:00 1.7 71.4 0 4 252
Savigliano 26-03-2020 02:00 2.2 74.7 0 5 277
Savigliano 26-03-2020 03:00 2 75 0 4.7 267
Savigliano 26-03-2020 04:00 2.1 74.3 0 3.2 297
Savigliano 26-03-2020 05:00 1.8 70.9 0 1.4 320
Savigliano 26-03-2020 06:00 1.9 69.9 0 2.2 306
Savigliano 26-03-2020 07:00 1.5 71.5 0 1.1 334
Savigliano 26-03-2020 08:00 1.9 65.6 0 0 297
Savigliano 26-03-2020 09:00 3.3 53.6 0 1.1 276
Savigliano 26-03-2020 10:00 3.4 50.5 0 1.8 126
Savigliano 26-03-2020 11:00 4.4 51.2 0 1.1 185
Savigliano 26-03-2020 12:00 4.4 50.5 0 1.8 281
Savigliano 26-03-2020 13:00 4.2 50.6 0 3.6 279
Savigliano 26-03-2020 14:00 4.5 57.9 0 5.8 235
Savigliano 26-03-2020 15:00 3.8 70.3 0 7.2 261
Savigliano 26-03-2020 16:00 2.6 78 0 3.2 271
Savigliano 26-03-2020 17:00 1.9 82.4 0 4 244
Savigliano 26-03-2020 18:00 2.2 86.8 0 7.9 193
Savigliano 26-03-2020 19:00 2.1 88.8 0 9.4 181
Savigliano 26-03-2020 20:00 1.7 84.9 0 6.1 186
Savigliano 26-03-2020 21:00 2 83.7 0 2.5 159
Savigliano 26-03-2020 22:00 2.2 84.4 0 0.4 180
Savigliano 26-03-2020 23:00 3.8 84.4 0 1.4 281
Savigliano 27-03-2020 00:00 3.4 85.7 0 2.5 318
Savigliano 27-03-2020 01:00 2.2 89.8 0 1.1 307
Savigliano 27-03-2020 02:00 2.1 90.1 0 1.4 297
Savigliano 27-03-2020 03:00 2 88.8 0 2.5 290
Savigliano 27-03-2020 04:00 2.2 89.1 0 4.3 286
Savigliano 27-03-2020 05:00 3.9 89.8 0 4 292
Savigliano 27-03-2020 06:00 4 90 0 2.9 287
Savigliano 27-03-2020 07:00 4.4 89.8 0 4 295
Savigliano 27-03-2020 08:00 4.7 89.8 0 4.7 279
Savigliano 27-03-2020 09:00 4.3 85.2 0 2.5 270
Savigliano 27-03-2020 10:00 4.4 83.8 0 3.6 285
Savigliano 27-03-2020 11:00 4.5 84.5 0 2.9 288
Savigliano 27-03-2020 12:00 6.5 85 0 2.2 292
Savigliano 27-03-2020 13:00 6.6 84.9 0.1 2.5 245
Savigliano 27-03-2020 14:00 6.7 83.8 0 2.2 187
Savigliano 27-03-2020 15:00 6.7 84.8 0 4 228
Savigliano 27-03-2020 16:00 6.6 84.4 0 4.7 217
Savigliano 27-03-2020 17:00 5.7 85.5 0 7.6 197
Savigliano 27-03-2020 18:00 6.5 85.2 0 6.5 194
Savigliano 27-03-2020 19:00 7 85 0 7.6 199
Savigliano 27-03-2020 20:00 7.3 84.1 0 6.1 199
Savigliano 27-03-2020 21:00 6.7 79.1 0 5.4 201
Savigliano 27-03-2020 22:00 6.7 78 0 5 203
Savigliano 27-03-2020 23:00 7.2 82 0 3.2 177
Savigliano 28-03-2020 00:00 6.8 84.4 0 2.2 198
Savigliano 28-03-2020 01:00 6.8 84.6 0 0.4 132
Savigliano 28-03-2020 02:00 6.7 87.5 0 2.2 273
Savigliano 28-03-2020 03:00 6.4 91.5 0 0.4 273
Savigliano 28-03-2020 04:00 5 89.8 0 1.1 180
Savigliano 28-03-2020 05:00 4.8 91.1 0 0.7 152
Savigliano 28-03-2020 06:00 4.7 90.7 0 1.1 141
Savigliano 28-03-2020 07:00 4.9 90.6 0 1.1 159
Savigliano 28-03-2020 08:00 7.1 85.9 0 1.4 192
Savigliano 28-03-2020 09:00 8.8 80.7 0 0.4 192
Savigliano 28-03-2020 10:00 12.2 68.1 0 1.1 163
Savigliano 28-03-2020 11:00 14.8 58.1 0 2.2 140
Savigliano 28-03-2020 12:00 14.7 51.2 0 3.6 118
Savigliano 28-03-2020 13:00 16.1 44 0 1.8 144
Savigliano 28-03-2020 14:00 17.2 44.3 0 2.5 206
Savigliano 28-03-2020 15:00 17.4 45 0 2.9 126
Savigliano 28-03-2020 16:00 17.4 44.2 0 2.9 131
Savigliano 28-03-2020 17:00 17 38.3 0 2.9 152
Savigliano 28-03-2020 18:00 17.4 44.1 0 1.4 137
Savigliano 28-03-2020 19:00 15.4 48.4 0 0.7 132
Savigliano 28-03-2020 20:00 13 58.9 0 0 132
Savigliano 28-03-2020 21:00 11.9 65.2 0 0.7 152
Savigliano 28-03-2020 22:00 10.1 67.8 0 1.4 193
Savigliano 28-03-2020 23:00 7 80.1 0 0.4 141
Savigliano 29-03-2020 00:00 6.7 85.1 0 2.9 166
Savigliano 29-03-2020 01:00 7 80.1 0 2.5 185
Savigliano 29-03-2020 03:00 6.2 80.2 0 1.4 179
Savigliano 29-03-2020 05:00 4.3 85.1 0 1.8 161
Savigliano 27-03-2020 14:45 0 0 0.1 0 0
Savigliano 27-03-2020 15:05 0 0 0.1 0 0
Savigliano 27-03-2020 15:15 0 0 0.1 0 0

Riassuntivo giornaliero del 29-03-2020